createdAt,value
2016-06-03T00:00:47.203Z,0
2016-06-03T00:01:47.299Z,0
2016-06-03T00:02:47.334Z,0
2016-06-03T00:03:47.320Z,0
2016-06-03T00:04:47.369Z,0
2016-06-03T00:05:47.450Z,0
2016-06-03T00:06:47.375Z,0
2016-06-03T00:07:47.487Z,0
2016-06-03T00:08:47.583Z,0
2016-06-03T00:09:47.664Z,0
2016-06-03T00:10:47.682Z,0
2016-06-03T00:11:47.670Z,0
2016-06-03T00:12:47.781Z,0
2016-06-03T00:13:47.784Z,0
2016-06-03T00:14:47.787Z,0
2016-06-03T00:15:47.883Z,0
2016-06-03T00:16:47.996Z,0
2016-06-03T00:17:47.952Z,0
2016-06-03T00:18:47.970Z,0
2016-06-03T00:19:48.051Z,0
2016-06-03T00:20:48.084Z,0
2016-06-03T00:21:48.088Z,0
2016-06-03T00:22:48.152Z,0
2016-06-03T00:23:48.186Z,0
2016-06-03T00:24:48.251Z,0
2016-06-03T00:25:48.645Z,0
2016-06-03T00:26:48.335Z,0
2016-06-03T00:27:48.400Z,0
2016-06-03T00:28:48.263Z,0
2016-06-03T00:29:48.452Z,0
2016-06-03T00:30:48.548Z,0
2016-06-03T00:31:48.521Z,0
2016-06-03T00:32:48.601Z,0
2016-06-03T00:33:48.635Z,0
2016-06-03T00:34:48.684Z,0
2016-06-03T00:35:48.703Z,0
2016-06-03T00:36:48.800Z,0
2016-06-03T00:37:48.786Z,0
2016-06-03T00:38:48.820Z,0
2016-06-03T00:39:49.417Z,0
2016-06-03T00:40:48.967Z,0
2016-06-03T00:41:49.032Z,0
2016-06-03T00:42:49.019Z,0
2016-06-03T00:43:49.036Z,0
2016-06-03T00:44:49.117Z,0
2016-06-03T00:45:49.105Z,0
2016-06-03T00:46:49.154Z,0
2016-06-03T00:47:49.236Z,0
2016-06-03T00:48:49.269Z,0
2016-06-03T00:49:49.116Z,0
2016-06-03T00:50:49.321Z,0
2016-06-03T00:51:49.433Z,0
2016-06-03T00:52:49.296Z,0
2016-06-03T00:53:49.454Z,0
2016-06-03T00:54:49.566Z,0
2016-06-03T00:55:49.929Z,0
2016-06-03T00:56:49.572Z,0
2016-06-03T00:57:49.638Z,0
2016-06-03T00:58:49.749Z,0
2016-06-03T00:59:49.626Z,0
2016-06-03T01:00:49.801Z,0
2016-06-03T01:01:49.804Z,0
2016-06-03T01:02:49.932Z,0
2016-06-03T01:03:49.887Z,0
2016-06-03T01:04:49.921Z,0
2016-06-03T01:05:50.018Z,0
2016-06-03T01:06:50.052Z,0
2016-06-03T01:07:50.040Z,0
2016-06-03T01:08:50.120Z,0
2016-06-03T01:09:50.248Z,0
2016-06-03T01:10:50.203Z,0
2016-06-03T01:11:50.222Z,0
2016-06-03T01:12:50.271Z,0
2016-06-03T01:13:50.242Z,0
2016-06-03T01:14:50.355Z,0
2016-06-03T01:15:50.373Z,0
2016-06-03T01:16:50.297Z,0
2016-06-03T01:17:50.363Z,0
2016-06-03T01:18:50.506Z,0
2016-06-03T01:19:50.618Z,0
2016-06-03T01:20:50.652Z,0
2016-06-03T01:21:50.639Z,0
2016-06-03T01:22:50.674Z,0
2016-06-03T01:23:50.847Z,0
2016-06-03T01:24:50.632Z,0
2016-06-03T01:25:51.932Z,0
2016-06-03T01:26:50.902Z,0
2016-06-03T01:27:50.968Z,0
2016-06-03T01:28:50.970Z,0
2016-06-03T01:29:51.004Z,0
2016-06-03T01:30:51.116Z,0
2016-06-03T01:31:51.104Z,0
2016-06-03T01:32:51.137Z,0
2016-06-03T01:33:51.140Z,0
2016-06-03T01:34:51.221Z,0
2016-06-03T01:35:51.286Z,0
2016-06-03T01:36:51.289Z,0
2016-06-03T01:37:51.307Z,0
2016-06-03T01:38:51.387Z,0
2016-06-03T01:39:51.376Z,0
2016-06-03T01:40:52.987Z,0
2016-06-03T01:41:51.552Z,0
2016-06-03T01:42:51.602Z,0
2016-06-03T01:43:51.683Z,0
2016-06-03T01:44:51.608Z,0
2016-06-03T01:45:51.703Z,0
2016-06-03T01:46:51.722Z,0
2016-06-03T01:47:51.725Z,0
2016-06-03T01:48:51.789Z,0
2016-06-03T01:49:51.871Z,0
2016-06-03T01:50:51.889Z,0
2016-06-03T01:51:51.892Z,0
2016-06-03T01:52:51.973Z,0
2016-06-03T01:53:52.052Z,0
2016-06-03T01:54:51.634Z,0
2016-06-03T01:55:52.840Z,0
2016-06-03T01:56:51.968Z,0
2016-06-03T01:57:52.188Z,0
2016-06-03T01:58:52.191Z,0
2016-06-03T01:59:52.241Z,0
2016-06-03T02:00:52.338Z,0
2016-06-03T02:01:52.324Z,0
2016-06-03T02:02:52.375Z,0
2016-06-03T02:03:52.409Z,0
2016-06-03T02:04:52.504Z,0
2016-06-03T02:05:52.523Z,0
2016-06-03T02:06:52.542Z,0
2016-06-03T02:07:52.575Z,0
2016-06-03T02:08:52.657Z,0
2016-06-03T02:09:53.565Z,0
2016-06-03T02:10:52.959Z,0
2016-06-03T02:11:52.836Z,0
2016-06-03T02:12:52.776Z,0
2016-06-03T02:13:52.826Z,0
2016-06-03T02:14:52.892Z,0
2016-06-03T02:15:53.019Z,0
2016-06-03T02:16:52.803Z,0
2016-06-03T02:17:53.008Z,0
2016-06-03T02:18:53.089Z,0
2016-06-03T02:19:53.123Z,0
2016-06-03T02:20:53.172Z,0
2016-06-03T02:21:53.160Z,0
2016-06-03T02:22:53.272Z,0
2016-06-03T02:23:53.290Z,0
2016-06-03T02:24:53.855Z,0
2016-06-03T02:25:53.077Z,0
2016-06-03T02:26:53.438Z,0
2016-06-03T02:27:53.426Z,0
2016-06-03T02:28:53.491Z,0
2016-06-03T02:29:53.385Z,0
2016-06-03T02:30:53.575Z,0
2016-06-03T02:31:53.577Z,0
2016-06-03T02:32:53.658Z,0
2016-06-03T02:33:53.724Z,0
2016-06-03T02:34:53.711Z,0
2016-06-03T02:35:53.760Z,0
2016-06-03T02:36:53.701Z,0
2016-06-03T02:37:53.890Z,0
2016-06-03T02:38:53.909Z,0
2016-06-03T02:39:54.006Z,0
2016-06-03T02:40:54.851Z,0
2016-06-03T02:41:54.042Z,0
2016-06-03T02:42:54.092Z,0
2016-06-03T02:43:54.109Z,0
2016-06-03T02:44:54.222Z,0
2016-06-03T02:45:54.178Z,0
2016-06-03T02:46:54.228Z,0
2016-06-03T02:47:54.308Z,0
2016-06-03T02:48:54.325Z,0
2016-06-03T02:49:54.344Z,0
2016-06-03T02:50:54.425Z,0
2016-06-03T02:51:54.459Z,0
2016-06-03T02:52:54.461Z,0
2016-06-03T02:53:54.511Z,0
2016-06-03T02:54:55.202Z,0
2016-06-03T02:55:55.892Z,0
2016-06-03T02:56:54.660Z,0
2016-06-03T02:57:54.710Z,0
2016-06-03T02:58:54.791Z,0
2016-06-03T02:59:54.794Z,0
2016-06-03T03:00:54.812Z,0
2016-06-03T03:01:54.908Z,0
2016-06-03T03:02:54.942Z,0
2016-06-03T03:03:54.945Z,0
2016-06-03T03:04:54.979Z,0
2016-06-03T03:05:55.075Z,0
2016-06-03T03:06:55.063Z,0
2016-06-03T03:07:55.096Z,0
2016-06-03T03:08:55.161Z,0
2016-06-03T03:09:55.851Z,0
2016-06-03T03:10:55.260Z,0
2016-06-03T03:11:55.107Z,0
2016-06-03T03:12:55.407Z,0
2016-06-03T03:13:55.378Z,0
2016-06-03T03:14:55.381Z,0
2016-06-03T03:15:55.445Z,0
2016-06-03T03:16:55.480Z,0
2016-06-03T03:17:55.561Z,0
2016-06-03T03:18:55.563Z,0
2016-06-03T03:19:55.659Z,0
2016-06-03T03:20:55.708Z,0
2016-06-03T03:21:55.697Z,0
2016-06-03T03:22:55.747Z,0
2016-06-03T03:23:55.827Z,0
2016-06-03T03:24:55.830Z,0
2016-06-03T03:25:56.770Z,0
2016-06-03T03:26:55.975Z,5
2016-06-03T03:27:56.009Z,5
2016-06-03T03:28:55.980Z,5
2016-06-03T03:29:56.046Z,5
2016-06-03T03:30:56.095Z,5
2016-06-03T03:31:56.161Z,5
2016-06-03T03:32:56.163Z,5
2016-06-03T03:33:56.182Z,5
2016-06-03T03:34:56.278Z,5
2016-06-03T03:35:56.313Z,0
2016-06-03T03:36:56.345Z,0
2016-06-03T03:37:56.379Z,0
2016-06-03T03:38:56.492Z,0
2016-06-03T03:39:56.932Z,5
2016-06-03T03:40:57.466Z,5
2016-06-03T03:41:56.547Z,5
2016-06-03T03:42:56.675Z,5
2016-06-03T03:43:56.614Z,5
2016-06-03T03:44:56.665Z,10
2016-06-03T03:45:56.714Z,5
2016-06-03T03:46:56.764Z,5
2016-06-03T03:47:56.766Z,10
2016-06-03T03:48:56.831Z,10
2016-06-03T03:49:56.881Z,20
2016-06-03T03:50:56.900Z,25
2016-06-03T03:51:56.996Z,25
2016-06-03T03:52:57.030Z,25
2016-06-03T03:53:57.080Z,30
2016-06-03T03:54:57.738Z,35
2016-06-03T03:55:57.741Z,35
2016-06-03T03:56:57.243Z,30
2016-06-03T03:57:57.184Z,30
2016-06-03T03:58:57.264Z,35
2016-06-03T03:59:57.314Z,45
2016-06-03T04:00:57.349Z,50
2016-06-03T04:01:57.367Z,50
2016-06-03T04:02:57.275Z,45
2016-06-03T04:03:57.449Z,40
2016-06-03T04:04:57.499Z,40
2016-06-03T04:05:57.565Z,40
2016-06-03T04:06:57.629Z,45
2016-06-03T04:07:57.680Z,55
2016-06-03T04:08:57.666Z,70
2016-06-03T04:09:57.997Z,75
2016-06-03T04:10:58.015Z,65
2016-06-03T04:11:57.815Z,60
2016-06-03T04:12:57.818Z,55
2016-06-03T04:13:57.915Z,55
2016-06-03T04:14:57.932Z,55
2016-06-03T04:15:57.950Z,55
2016-06-03T04:16:58.016Z,50
2016-06-03T04:17:58.034Z,55
2016-06-03T04:18:58.115Z,80
2016-06-03T04:19:58.150Z,95
2016-06-03T04:20:58.152Z,115
2016-06-03T04:21:58.248Z,115
2016-06-03T04:22:58.251Z,115
2016-06-03T04:23:58.286Z,120
2016-06-03T04:24:58.397Z,125
2016-06-03T04:25:58.791Z,125
2016-06-03T04:26:58.433Z,125
2016-06-03T04:27:58.452Z,125
2016-06-03T04:28:58.564Z,125
2016-06-03T04:29:58.536Z,115
2016-06-03T04:30:58.600Z,100
2016-06-03T04:31:58.713Z,85
2016-06-03T04:32:58.716Z,75
2016-06-03T04:33:58.734Z,70
2016-06-03T04:34:58.736Z,75
2016-06-03T04:35:58.849Z,95
2016-06-03T04:36:58.820Z,100
2016-06-03T04:37:58.869Z,100
2016-06-03T04:38:58.950Z,110
2016-06-03T04:39:59.891Z,120
2016-06-03T04:40:59.956Z,110
2016-06-03T04:41:59.037Z,115
2016-06-03T04:42:59.148Z,115
2016-06-03T04:43:59.120Z,100
2016-06-03T04:44:59.201Z,95
2016-06-03T04:45:59.312Z,95
2016-06-03T04:46:59.316Z,95
2016-06-03T04:47:59.303Z,100
2016-06-03T04:48:59.383Z,105
2016-06-03T04:49:59.464Z,110
2016-06-03T04:50:59.420Z,115
2016-06-03T04:51:59.986Z,130
2016-06-03T04:52:59.394Z,140
2016-06-03T04:53:59.600Z,145
2016-06-03T04:54:59.884Z,155
2016-06-03T04:55:59.950Z,165
2016-06-03T04:56:59.717Z,170
2016-06-03T04:57:59.752Z,175
2016-06-03T04:58:59.755Z,185
2016-06-03T04:59:59.913Z,190
2016-06-03T05:01:00.727Z,195
2016-06-03T05:01:59.888Z,195
2016-06-03T05:03:00.015Z,200
2016-06-03T05:04:00.002Z,200
2016-06-03T05:05:00.082Z,200
2016-06-03T05:06:00.054Z,210
2016-06-03T05:07:00.151Z,215
2016-06-03T05:08:00.169Z,220
2016-06-03T05:09:00.218Z,215
2016-06-03T05:10:01.955Z,220
2016-06-03T05:11:01.193Z,225
2016-06-03T05:12:00.508Z,235
2016-06-03T05:13:00.370Z,225
2016-06-03T05:14:00.451Z,215
2016-06-03T05:15:00.485Z,200
2016-06-03T05:16:00.956Z,185
2016-06-03T05:17:00.536Z,185
2016-06-03T05:18:01.242Z,185
2016-06-03T05:19:00.683Z,180
2016-06-03T05:20:00.654Z,180
2016-06-03T05:21:00.719Z,170
2016-06-03T05:22:04.253Z,165
2016-06-03T05:23:00.709Z,170
2016-06-03T05:24:02.900Z,170
2016-06-03T05:25:03.308Z,165
2016-06-03T05:26:01.233Z,155
2016-06-03T05:27:00.845Z,140
2016-06-03T05:28:02.036Z,135
2016-06-03T05:29:03.350Z,130
2016-06-03T05:30:03.338Z,125
2016-06-03T05:31:01.137Z,130
2016-06-03T05:32:01.172Z,145
2016-06-03T05:33:01.298Z,150
2016-06-03T05:34:01.269Z,140
2016-06-03T05:35:01.304Z,140
2016-06-03T05:36:01.385Z,145
2016-06-03T05:37:01.434Z,145
2016-06-03T05:38:03.562Z,135
2016-06-03T05:39:01.487Z,110
2016-06-03T05:40:01.911Z,95
2016-06-03T05:41:02.601Z,70
2016-06-03T05:42:01.620Z,60
2016-06-03T05:43:01.763Z,70
2016-06-03T05:44:01.563Z,85
2016-06-03T05:45:01.737Z,75
2016-06-03T05:46:01.787Z,70
2016-06-03T05:47:01.837Z,65
2016-06-03T05:48:02.043Z,70
2016-06-03T05:49:01.904Z,80
2016-06-03T05:50:01.938Z,80
2016-06-03T05:51:02.848Z,100
2016-06-03T05:52:02.068Z,120
2016-06-03T05:53:02.399Z,145
2016-06-03T05:54:02.167Z,165
2016-06-03T05:55:02.920Z,180
2016-06-03T05:56:03.000Z,175
2016-06-03T05:57:02.253Z,185
2016-06-03T05:58:02.334Z,235
2016-06-03T05:59:02.353Z,320
2016-06-03T06:00:02.418Z,330
2016-06-03T06:01:03.108Z,310
2016-06-03T06:02:02.533Z,295
2016-06-03T06:03:02.505Z,280
2016-06-03T06:04:02.585Z,315
2016-06-03T06:05:02.635Z,330
2016-06-03T06:06:02.856Z,300
2016-06-03T06:07:02.672Z,275
2016-06-03T06:08:02.721Z,260
2016-06-03T06:09:05.052Z,245
2016-06-03T06:10:04.116Z,245
2016-06-03T06:11:03.902Z,250
2016-06-03T06:12:05.575Z,235
2016-06-03T06:13:02.984Z,230
2016-06-03T06:14:03.002Z,225
2016-06-03T06:15:03.021Z,200
2016-06-03T06:16:03.086Z,210
2016-06-03T06:17:03.135Z,200
2016-06-03T06:18:03.201Z,210
2016-06-03T06:19:03.204Z,220
2016-06-03T06:20:03.253Z,220
2016-06-03T06:21:03.318Z,225
2016-06-03T06:22:03.181Z,240
2016-06-03T06:23:06.152Z,250
2016-06-03T06:24:06.092Z,255
2016-06-03T06:25:03.595Z,275
2016-06-03T06:26:05.989Z,300
2016-06-03T06:27:03.382Z,240
2016-06-03T06:28:03.649Z,225
2016-06-03T06:29:03.621Z,245
2016-06-03T06:30:07.233Z,200
2016-06-03T06:31:04.548Z,200
2016-06-03T06:32:03.847Z,200
2016-06-03T06:33:03.991Z,155
2016-06-03T06:34:07.619Z,140
2016-06-03T06:35:06.606Z,155
2016-06-03T06:36:04.015Z,130
2016-06-03T06:37:04.018Z,110
2016-06-03T06:38:06.911Z,125
2016-06-03T06:39:07.226Z,125
2016-06-03T06:40:08.917Z,110
2016-06-03T06:41:03.904Z,135
2016-06-03T06:42:04.702Z,145
2016-06-03T06:43:04.768Z,140
2016-06-03T06:44:04.771Z,155
2016-06-03T06:45:07.539Z,180
2016-06-03T06:46:07.401Z,185
2016-06-03T06:47:11.631Z,175
2016-06-03T06:48:08.036Z,200
2016-06-03T06:49:07.863Z,185
2016-06-03T06:50:08.127Z,155
2016-06-03T06:51:04.751Z,130
2016-06-03T06:52:08.875Z,105
2016-06-03T06:53:04.997Z,105
2016-06-03T06:54:05.509Z,90
2016-06-03T06:55:06.179Z,85
2016-06-03T06:56:14.598Z,75
2016-06-03T06:57:06.339Z,70
2016-06-03T06:58:08.673Z,70
2016-06-03T06:59:05.460Z,75
2016-06-03T07:00:05.264Z,80
2016-06-03T07:01:05.411Z,100
2016-06-03T07:02:05.790Z,110
2016-06-03T07:03:05.575Z,115
2016-06-03T07:04:05.422Z,130
2016-06-03T07:05:12.254Z,165
2016-06-03T07:06:08.117Z,195
2016-06-03T07:07:11.542Z,225
2016-06-03T07:08:08.843Z,245
2016-06-03T07:09:06.003Z,240
2016-06-03T07:10:06.834Z,240
2016-06-03T07:11:06.901Z,250
2016-06-03T07:12:05.825Z,255
2016-06-03T07:13:05.656Z,265
2016-06-03T07:14:06.096Z,300
2016-06-03T07:15:06.583Z,335
2016-06-03T07:16:07.148Z,345
2016-06-03T07:17:06.963Z,335
2016-06-03T07:18:08.731Z,310
2016-06-03T07:19:06.234Z,265
2016-06-03T07:20:06.424Z,215
2016-06-03T07:21:09.677Z,175
2016-06-03T07:22:11.477Z,195
2016-06-03T07:23:11.058Z,195
2016-06-03T07:24:06.107Z,260
2016-06-03T07:25:11.751Z,305
2016-06-03T07:26:06.409Z,280
2016-06-03T07:27:06.584Z,230
2016-06-03T07:28:06.711Z,195
2016-06-03T07:29:08.949Z,205
2016-06-03T07:30:06.545Z,250
2016-06-03T07:31:06.580Z,260
2016-06-03T07:32:06.613Z,210
2016-06-03T07:33:06.835Z,200
2016-06-03T07:34:06.868Z,195
2016-06-03T07:35:07.355Z,175
2016-06-03T07:36:07.233Z,175
2016-06-03T07:37:07.564Z,225
2016-06-03T07:38:09.816Z,200
2016-06-03T07:39:11.351Z,145
2016-06-03T07:40:11.619Z,155
2016-06-03T07:41:06.982Z,135
2016-06-03T07:42:07.531Z,150
2016-06-03T07:43:07.048Z,155
2016-06-03T07:44:10.942Z,145
2016-06-03T07:45:09.726Z,125
2016-06-03T07:46:07.120Z,110
2016-06-03T07:47:10.309Z,90
2016-06-03T07:48:09.687Z,90
2016-06-03T07:49:09.456Z,105
2016-06-03T07:50:10.208Z,100
2016-06-03T07:51:09.586Z,100
2016-06-03T07:52:07.433Z,85
2016-06-03T07:53:09.856Z,115
2016-06-03T07:54:07.578Z,145
2016-06-03T07:55:07.597Z,145
2016-06-03T07:56:07.897Z,150
2016-06-03T07:57:10.367Z,155
2016-06-03T07:58:07.714Z,175
2016-06-03T07:59:10.326Z,175
2016-06-03T08:00:07.844Z,175
2016-06-03T08:01:07.894Z,185
2016-06-03T08:02:08.021Z,190
2016-06-03T08:03:12.978Z,210
2016-06-03T08:04:12.871Z,205
2016-06-03T08:05:13.296Z,200
2016-06-03T08:06:12.407Z,190
2016-06-03T08:07:13.035Z,215
2016-06-03T08:08:12.444Z,240
2016-06-03T08:09:14.040Z,245
2016-06-03T08:10:13.231Z,225
2016-06-03T08:11:08.437Z,220
2016-06-03T08:12:12.596Z,220
2016-06-03T08:13:08.348Z,270
2016-06-03T08:14:08.413Z,355
2016-06-03T08:15:14.088Z,460
2016-06-03T08:16:08.512Z,500
2016-06-03T08:17:13.671Z,520
2016-06-03T08:18:08.581Z,555
2016-06-03T08:19:08.692Z,625
2016-06-03T08:20:08.648Z,665
2016-06-03T08:21:08.698Z,700
2016-06-03T08:22:08.794Z,710
2016-06-03T08:23:08.844Z,710
2016-06-03T08:24:08.831Z,675
2016-06-03T08:25:08.881Z,635
2016-06-03T08:26:09.039Z,590
2016-06-03T08:27:08.995Z,550
2016-06-03T08:28:09.358Z,535
2016-06-03T08:29:09.078Z,535
2016-06-03T08:30:09.347Z,555
2016-06-03T08:31:09.209Z,595
2016-06-03T08:32:09.743Z,640
2016-06-03T08:33:09.714Z,680
2016-06-03T08:34:09.326Z,705
2016-06-03T08:35:09.330Z,700
2016-06-03T08:36:09.207Z,700
2016-06-03T08:37:09.460Z,695
2016-06-03T08:38:09.463Z,695
2016-06-03T08:39:09.512Z,695
2016-06-03T08:40:10.015Z,700
2016-06-03T08:41:09.814Z,720
2016-06-03T08:42:09.660Z,735
2016-06-03T08:43:09.695Z,760
2016-06-03T08:44:11.900Z,715
2016-06-03T08:45:15.810Z,620
2016-06-03T08:46:14.046Z,580
2016-06-03T08:47:09.892Z,650
2016-06-03T08:48:13.177Z,730
2016-06-03T08:49:09.992Z,695
2016-06-03T08:50:10.010Z,645
2016-06-03T08:51:10.076Z,555
2016-06-03T08:52:10.156Z,650
2016-06-03T08:53:10.158Z,690
2016-06-03T08:54:10.209Z,630
2016-06-03T08:55:12.898Z,510
2016-06-03T08:56:10.308Z,420
2016-06-03T08:57:14.076Z,340
2016-06-03T08:58:10.469Z,275
2016-06-03T08:59:10.519Z,240
2016-06-03T09:00:10.491Z,190
2016-06-03T09:01:10.555Z,140
2016-06-03T09:02:13.058Z,135
2016-06-03T09:03:15.030Z,165
2016-06-03T09:04:16.752Z,205
2016-06-03T09:05:10.848Z,255
2016-06-03T09:06:10.960Z,330
2016-06-03T09:07:13.180Z,355
2016-06-03T09:08:12.340Z,435
2016-06-03T09:09:11.030Z,420
2016-06-03T09:10:11.564Z,370
2016-06-03T09:11:14.207Z,435
2016-06-03T09:12:13.851Z,465
2016-06-03T09:13:10.979Z,500
2016-06-03T09:14:13.825Z,520
2016-06-03T09:15:11.249Z,510
2016-06-03T09:16:12.127Z,495
2016-06-03T09:17:13.693Z,505
2016-06-03T09:18:14.008Z,475
2016-06-03T09:19:18.182Z,450
2016-06-03T09:20:11.466Z,440
2016-06-03T09:21:11.453Z,435
2016-06-03T09:22:11.565Z,415
2016-06-03T09:23:11.584Z,425
2016-06-03T09:24:11.665Z,450
2016-06-03T09:25:13.308Z,465
2016-06-03T09:26:12.138Z,465
2016-06-03T09:27:11.642Z,460
2016-06-03T09:28:11.784Z,470
2016-06-03T09:29:13.958Z,490
2016-06-03T09:30:11.853Z,505
2016-06-03T09:31:11.964Z,490
2016-06-03T09:32:16.372Z,400
2016-06-03T09:33:12.063Z,330
2016-06-03T09:34:15.098Z,315
2016-06-03T09:35:12.069Z,285
2016-06-03T09:36:12.119Z,235
2016-06-03T09:37:12.230Z,210
2016-06-03T09:38:12.655Z,245
2016-06-03T09:39:14.049Z,315
2016-06-03T09:40:15.285Z,400
2016-06-03T09:41:15.038Z,525
2016-06-03T09:42:15.650Z,665
2016-06-03T09:43:15.325Z,710
2016-06-03T09:44:16.172Z,710
2016-06-03T09:45:12.533Z,690
2016-06-03T09:46:12.582Z,650
2016-06-03T09:47:12.680Z,620
2016-06-03T09:48:13.603Z,590
2016-06-03T09:49:12.763Z,565
2016-06-03T09:50:12.765Z,595
2016-06-03T09:51:12.831Z,675
2016-06-03T09:52:12.912Z,750
2016-06-03T09:53:12.961Z,780
2016-06-03T09:54:13.057Z,865
2016-06-03T09:55:12.873Z,885
2016-06-03T09:56:14.125Z,860
2016-06-03T09:57:13.175Z,840
2016-06-03T09:58:13.864Z,735
2016-06-03T09:59:13.742Z,695
2016-06-03T10:00:13.574Z,650
2016-06-03T10:01:13.264Z,565
2016-06-03T10:02:13.329Z,545
2016-06-03T10:03:13.316Z,510
2016-06-03T10:04:13.538Z,470
2016-06-03T10:05:13.446Z,475
2016-06-03T10:06:13.575Z,525
2016-06-03T10:07:13.592Z,520
2016-06-03T10:08:13.626Z,615
2016-06-03T10:09:13.692Z,675
2016-06-03T10:10:13.554Z,585
2016-06-03T10:11:13.635Z,575
2016-06-03T10:12:13.778Z,525
2016-06-03T10:13:13.921Z,395
2016-06-03T10:14:13.908Z,330
2016-06-03T10:15:13.926Z,300
2016-06-03T10:16:13.804Z,325
2016-06-03T10:17:14.198Z,450
2016-06-03T10:18:14.107Z,550
2016-06-03T10:19:14.156Z,555
2016-06-03T10:20:14.159Z,545
2016-06-03T10:21:14.255Z,535
2016-06-03T10:22:14.257Z,530
2016-06-03T10:23:14.276Z,505
2016-06-03T10:24:14.387Z,475
2016-06-03T10:25:15.500Z,440
2016-06-03T10:26:14.285Z,405
2016-06-03T10:27:14.475Z,380
2016-06-03T10:28:14.556Z,390
2016-06-03T10:29:14.636Z,425
2016-06-03T10:30:14.639Z,415
2016-06-03T10:31:14.657Z,395
2016-06-03T10:32:14.784Z,390
2016-06-03T10:33:14.803Z,420
2016-06-03T10:34:14.821Z,475
2016-06-03T10:35:14.886Z,535
2016-06-03T10:36:14.905Z,630
2016-06-03T10:37:16.047Z,920
2016-06-03T10:38:14.973Z,1350
2016-06-03T10:39:15.069Z,960
2016-06-03T10:40:15.760Z,960
2016-06-03T10:41:14.918Z,830
2016-06-03T10:42:15.202Z,700
2016-06-03T10:43:15.299Z,560
2016-06-03T10:44:15.691Z,420
2016-06-03T10:45:16.085Z,345
2016-06-03T10:46:15.557Z,355
2016-06-03T10:47:15.294Z,390
2016-06-03T10:48:15.531Z,465
2016-06-03T10:49:15.534Z,450
2016-06-03T10:50:15.865Z,400
2016-06-03T10:51:17.211Z,565
2016-06-03T10:52:15.760Z,810
2016-06-03T10:53:15.700Z,3290
2016-06-03T10:54:15.751Z,865
2016-06-03T10:55:16.268Z,690
2016-06-03T10:56:15.881Z,3085
2016-06-03T10:57:17.259Z,3045
2016-06-03T10:58:15.870Z,1745
2016-06-03T10:59:16.045Z,2050
2016-06-03T11:00:16.078Z,1670
2016-06-03T11:01:16.066Z,1735
2016-06-03T11:02:16.303Z,800
2016-06-03T11:03:16.134Z,655
2016-06-03T11:04:16.277Z,520
2016-06-03T11:05:16.295Z,385
2016-06-03T11:06:16.297Z,350
2016-06-03T11:07:16.425Z,375
2016-06-03T11:08:16.413Z,480
2016-06-03T11:09:16.556Z,3260
2016-06-03T11:10:16.402Z,3025
2016-06-03T11:11:16.608Z,3515
2016-06-03T11:12:16.721Z,3450
2016-06-03T11:13:16.660Z,3640
2016-06-03T11:14:16.726Z,3385
2016-06-03T11:15:16.603Z,3560
2016-06-03T11:16:16.918Z,3445
2016-06-03T11:17:16.702Z,3525
2016-06-03T11:18:16.940Z,3650
2016-06-03T11:19:17.036Z,3605
2016-06-03T11:20:17.054Z,3535
2016-06-03T11:21:17.135Z,3560
2016-06-03T11:22:17.216Z,3525
2016-06-03T11:23:18.375Z,3520
2016-06-03T11:24:17.237Z,3460
2016-06-03T11:25:19.333Z,3485
2016-06-03T11:26:18.352Z,3545
2016-06-03T11:27:17.433Z,3210
2016-06-03T11:28:19.857Z,530
2016-06-03T11:29:18.610Z,3110
2016-06-03T11:30:17.706Z,980
2016-06-03T11:31:24.818Z,2155
2016-06-03T11:32:17.820Z,1025
2016-06-03T11:33:18.167Z,1110
2016-06-03T11:34:17.858Z,1100
2016-06-03T11:35:21.454Z,3275
2016-06-03T11:36:21.114Z,1160
2016-06-03T11:37:21.241Z,3650
2016-06-03T11:38:21.259Z,3605
2016-06-03T11:39:20.794Z,1350
2016-06-03T11:40:18.608Z,720
2016-06-03T11:41:18.080Z,765
2016-06-03T11:42:18.552Z,3110
2016-06-03T11:43:18.319Z,990
2016-06-03T11:44:19.057Z,695
2016-06-03T11:45:20.980Z,1885
2016-06-03T11:46:18.483Z,875
2016-06-03T11:47:18.736Z,1175
2016-06-03T11:48:18.630Z,2270
2016-06-03T11:49:18.696Z,1815
2016-06-03T11:50:20.494Z,3440
2016-06-03T11:51:18.779Z,1210
2016-06-03T11:52:18.812Z,700
2016-06-03T11:53:18.862Z,680
2016-06-03T11:54:18.942Z,795
2016-06-03T11:55:21.320Z,860
2016-06-03T11:56:21.979Z,790
2016-06-03T11:57:18.951Z,1575
2016-06-03T11:58:19.157Z,640
2016-06-03T11:59:19.190Z,535
2016-06-03T12:00:19.662Z,605
2016-06-03T12:01:19.306Z,720
2016-06-03T12:02:19.448Z,850
2016-06-03T12:03:19.404Z,965
2016-06-03T12:04:19.438Z,3655
2016-06-03T12:05:20.285Z,3565
2016-06-03T12:06:19.537Z,2485
2016-06-03T12:07:19.633Z,790
2016-06-03T12:08:19.636Z,645
2016-06-03T12:09:19.686Z,595
2016-06-03T12:10:19.860Z,440
2016-06-03T12:11:19.989Z,335
2016-06-03T12:12:19.819Z,315
2016-06-03T12:13:19.916Z,300
2016-06-03T12:14:20.013Z,290
2016-06-03T12:15:20.015Z,335
2016-06-03T12:16:20.049Z,415
2016-06-03T12:17:20.113Z,600
2016-06-03T12:18:20.164Z,3415
2016-06-03T12:19:20.213Z,940
2016-06-03T12:20:20.247Z,640
2016-06-03T12:21:20.327Z,455
2016-06-03T12:22:20.362Z,455
2016-06-03T12:23:20.662Z,385
2016-06-03T12:24:20.586Z,360
2016-06-03T12:25:22.338Z,345
2016-06-03T12:26:20.591Z,300
2016-06-03T12:27:20.781Z,320
2016-06-03T12:28:20.690Z,350
2016-06-03T12:29:20.693Z,390
2016-06-03T12:30:20.759Z,545
2016-06-03T12:31:20.808Z,690
2016-06-03T12:32:20.920Z,3510
2016-06-03T12:33:20.892Z,1035
2016-06-03T12:34:20.926Z,3310
2016-06-03T12:35:21.006Z,885
2016-06-03T12:36:21.181Z,700
2016-06-03T12:37:21.074Z,650
2016-06-03T12:38:21.155Z,815
2016-06-03T12:39:21.220Z,460
2016-06-03T12:40:21.457Z,330
2016-06-03T12:41:22.210Z,280
2016-06-03T12:42:21.572Z,265
2016-06-03T12:43:21.387Z,300
2016-06-03T12:44:21.436Z,350
2016-06-03T12:45:21.658Z,780
2016-06-03T12:46:21.536Z,490
2016-06-03T12:47:21.554Z,485
2016-06-03T12:48:21.604Z,2210
2016-06-03T12:49:21.685Z,590
2016-06-03T12:50:21.655Z,2005
2016-06-03T12:51:21.846Z,345
2016-06-03T12:52:21.661Z,345
2016-06-03T12:53:21.773Z,385
2016-06-03T12:54:21.901Z,380
2016-06-03T12:55:21.731Z,315
2016-06-03T12:56:22.484Z,285
2016-06-03T12:57:22.112Z,275
2016-06-03T12:58:22.021Z,275
2016-06-03T12:59:22.165Z,250
2016-06-03T13:00:22.262Z,250
2016-06-03T13:01:22.248Z,260
2016-06-03T13:02:32.156Z,230
2016-06-03T13:03:31.565Z,220
2016-06-03T13:04:31.475Z,200
2016-06-03T13:05:31.775Z,145
2016-06-03T13:06:31.418Z,105
2016-06-03T13:07:30.906Z,80
2016-06-03T13:08:22.564Z,65
2016-06-03T13:09:22.706Z,60
2016-06-03T13:10:23.617Z,60
2016-06-03T13:11:31.103Z,65
2016-06-03T13:12:22.761Z,70
2016-06-03T13:13:22.842Z,85
2016-06-03T13:14:22.861Z,100
2016-06-03T13:15:22.895Z,130
2016-06-03T13:16:31.663Z,170
2016-06-03T13:17:23.072Z,180
2016-06-03T13:18:23.091Z,175
2016-06-03T13:19:23.062Z,170
2016-06-03T13:20:23.143Z,200
2016-06-03T13:21:23.146Z,215
2016-06-03T13:22:23.180Z,230
2016-06-03T13:23:23.244Z,265
2016-06-03T13:24:23.310Z,270
2016-06-03T13:25:23.593Z,200
2016-06-03T13:26:23.268Z,130
2016-06-03T13:27:23.459Z,90
2016-06-03T13:28:23.555Z,100
2016-06-03T13:29:23.574Z,155
2016-06-03T13:30:23.529Z,155
2016-06-03T13:31:23.641Z,145
2016-06-03T13:32:23.690Z,130
2016-06-03T13:33:23.693Z,125
2016-06-03T13:34:23.774Z,145
2016-06-03T13:35:23.792Z,190
2016-06-03T13:36:24.077Z,225
2016-06-03T13:37:23.892Z,230
2016-06-03T13:38:23.973Z,240
2016-06-03T13:39:24.006Z,250
2016-06-03T13:40:24.369Z,265
2016-06-03T13:41:24.542Z,385
2016-06-03T13:42:24.155Z,540
2016-06-03T13:43:24.017Z,810
2016-06-03T13:44:24.207Z,675
2016-06-03T13:45:24.242Z,625
2016-06-03T13:46:24.369Z,675
2016-06-03T13:47:24.324Z,770
2016-06-03T13:48:24.344Z,1835
2016-06-03T13:49:24.471Z,795
2016-06-03T13:50:24.458Z,840
2016-06-03T13:51:24.523Z,605
2016-06-03T13:52:26.135Z,435
2016-06-03T13:53:26.247Z,325
2016-06-03T13:54:24.625Z,225
2016-06-03T13:55:24.955Z,165
2016-06-03T13:56:25.630Z,135
2016-06-03T13:57:25.648Z,120
2016-06-03T13:58:24.823Z,135
2016-06-03T13:59:26.513Z,155
2016-06-03T14:00:24.922Z,170
2016-06-03T14:01:24.957Z,205
2016-06-03T14:02:26.959Z,255
2016-06-03T14:03:25.056Z,315